createdAt,value
2022-12-14T00:00:31.642Z,15.53
2022-12-14T00:03:19.544Z,14.47
2022-12-14T00:06:15.604Z,17.70
2022-12-14T00:09:05.181Z,12.93
2022-12-14T00:11:52.374Z,12.75
2022-12-14T00:14:39.949Z,13.35
2022-12-14T00:17:27.222Z,14.63
2022-12-14T00:20:14.748Z,13.35
2022-12-14T00:23:02.010Z,14.45
2022-12-14T00:25:49.646Z,14.53
2022-12-14T00:28:37.871Z,16.52
2022-12-14T00:31:26.309Z,14.05
2022-12-14T00:34:13.797Z,13.22
2022-12-14T00:37:01.189Z,13.30
2022-12-14T00:39:49.479Z,12.53
2022-12-14T00:42:36.929Z,14.18
2022-12-14T00:45:24.107Z,15.68
2022-12-14T00:48:12.637Z,11.85
2022-12-14T00:50:59.729Z,13.38
2022-12-14T00:53:47.225Z,14.63
2022-12-14T00:56:34.567Z,13.93
2022-12-14T00:59:27.096Z,12.55
2022-12-14T01:02:11.033Z,14.07
2022-12-14T01:04:58.435Z,14.78
2022-12-14T01:07:46.062Z,10.85
2022-12-14T01:10:35.107Z,10.68
2022-12-14T01:13:22.392Z,11.90
2022-12-14T01:16:12.613Z,14.47
2022-12-14T01:19:01.179Z,11.73
2022-12-14T01:21:48.200Z,15.05
2022-12-14T01:24:35.147Z,10.08
2022-12-14T01:27:22.234Z,10.78
2022-12-14T01:30:09.926Z,12.20
2022-12-14T01:32:57.229Z,11.68
2022-12-14T01:35:44.408Z,10.88
2022-12-14T01:38:31.730Z,14.10
2022-12-14T01:41:35.125Z,10.40
2022-12-14T01:44:25.417Z,12.70
2022-12-14T01:47:27.542Z,10.90
2022-12-14T01:50:30.027Z,11.70
2022-12-14T01:53:20.695Z,14.78
2022-12-14T01:56:08.118Z,13.88
2022-12-14T01:58:57.444Z,13.13
2022-12-14T02:01:45.336Z,13.13
2022-12-14T02:04:37.352Z,13.00
2022-12-14T02:07:26.257Z,10.55
2022-12-14T02:10:14.066Z,10.35
2022-12-14T02:13:27.464Z,11.12
2022-12-14T02:16:15.323Z,9.53
2022-12-14T02:19:02.749Z,11.90
2022-12-14T02:22:20.477Z,12.95
2022-12-14T02:25:27.638Z,12.18
2022-12-14T02:28:27.321Z,15.63
2022-12-14T02:31:41.875Z,11.75
2022-12-14T02:34:50.704Z,9.25
2022-12-14T02:38:00.762Z,11.73
2022-12-14T02:41:00.370Z,13.20
2022-12-14T02:43:59.578Z,11.00
2022-12-14T02:46:58.686Z,11.57
2022-12-14T02:49:51.897Z,10.82
2022-12-14T02:52:41.969Z,11.80
2022-12-14T02:55:33.370Z,12.73
2022-12-14T02:58:27.072Z,13.60
2022-12-14T03:01:18.423Z,11.95
2022-12-14T03:04:06.763Z,12.05
2022-12-14T03:07:03.182Z,12.23
2022-12-14T03:09:50.762Z,10.53
2022-12-14T03:12:41.199Z,9.88
2022-12-14T03:15:30.605Z,10.82
2022-12-14T03:18:20.879Z,12.78
2022-12-14T03:21:11.391Z,12.33
2022-12-14T03:24:00.600Z,11.05
2022-12-14T03:26:57.135Z,10.88
2022-12-14T03:29:47.866Z,13.07
2022-12-14T03:32:38.419Z,10.58
2022-12-14T03:35:31.256Z,12.85
2022-12-14T03:38:31.295Z,10.80
2022-12-14T03:41:30.532Z,11.48
2022-12-14T03:44:45.205Z,12.28
2022-12-14T03:47:40.085Z,10.60
2022-12-14T03:50:36.426Z,11.48
2022-12-14T03:53:44.456Z,12.37
2022-12-14T03:56:40.551Z,10.63
2022-12-14T03:59:40.137Z,10.10
2022-12-14T04:02:41.191Z,12.35
2022-12-14T04:05:31.647Z,14.93
2022-12-14T04:08:34.187Z,10.35
2022-12-14T04:11:41.474Z,13.13
2022-12-14T04:17:56.236Z,13.38
2022-12-14T04:20:56.060Z,11.35
2022-12-14T04:24:06.989Z,12.23
2022-12-14T04:26:57.525Z,13.43
2022-12-14T04:29:56.978Z,11.88
2022-12-14T04:32:59.306Z,11.60
2022-12-14T04:35:47.684Z,12.70
2022-12-14T04:38:37.897Z,10.72
2022-12-14T04:41:28.463Z,12.58
2022-12-14T04:44:24.397Z,11.43
2022-12-14T04:47:14.791Z,14.80
2022-12-14T04:50:05.361Z,12.58
2022-12-14T04:53:01.720Z,12.25
2022-12-14T04:55:52.059Z,12.78
2022-12-14T04:58:40.871Z,11.90
2022-12-14T05:01:49.143Z,12.13
2022-12-14T05:04:57.780Z,12.82
2022-12-14T05:07:57.243Z,12.43
2022-12-14T05:10:50.636Z,13.20
2022-12-14T05:13:41.005Z,11.50
2022-12-14T05:16:28.622Z,12.05
2022-12-14T05:19:16.605Z,12.33
2022-12-14T05:22:06.822Z,14.07
2022-12-14T05:24:54.198Z,14.33
2022-12-14T05:27:41.604Z,13.75
2022-12-14T05:30:29.627Z,12.70
2022-12-14T05:33:19.812Z,14.40
2022-12-14T05:36:07.356Z,14.30
2022-12-14T05:38:54.662Z,11.80
2022-12-14T05:41:43.016Z,12.53
2022-12-14T05:44:30.199Z,12.28
2022-12-14T05:47:17.644Z,12.37
2022-12-14T05:50:05.512Z,12.30
2022-12-14T05:52:54.802Z,13.32
2022-12-14T05:55:50.092Z,13.15
2022-12-14T05:58:38.329Z,12.00
2022-12-14T06:01:28.900Z,13.75
2022-12-14T06:04:17.218Z,14.95
2022-12-14T06:07:05.463Z,13.08
2022-12-14T06:09:52.657Z,14.30
2022-12-14T06:12:40.339Z,16.87
2022-12-14T06:15:33.805Z,14.25
2022-12-14T06:18:18.821Z,14.55
2022-12-14T06:21:06.476Z,16.60
2022-12-14T06:23:55.350Z,16.52
2022-12-14T06:26:43.472Z,16.02
2022-12-14T06:29:30.947Z,16.17
2022-12-14T06:32:18.558Z,12.95
2022-12-14T06:35:07.348Z,13.38
2022-12-14T06:37:54.546Z,16.02
2022-12-14T06:40:42.187Z,12.15
2022-12-14T06:43:31.286Z,14.18
2022-12-14T06:46:22.002Z,14.45
2022-12-14T06:49:11.126Z,17.73
2022-12-14T06:51:58.370Z,15.50
2022-12-14T06:54:45.482Z,14.43
2022-12-14T06:57:32.744Z,13.85
2022-12-14T07:00:22.914Z,15.53
2022-12-14T07:03:11.257Z,16.07
2022-12-14T07:06:00.594Z,16.23
2022-12-14T07:08:48.262Z,14.65
2022-12-14T07:11:35.948Z,14.30
2022-12-14T07:14:23.353Z,13.68
2022-12-14T07:17:10.673Z,14.70
2022-12-14T07:19:57.851Z,15.93
2022-12-14T07:22:49.268Z,15.10
2022-12-14T07:25:34.341Z,19.32
2022-12-14T07:28:22.544Z,17.02
2022-12-14T07:31:13.172Z,15.85
2022-12-14T07:34:01.079Z,17.82
2022-12-14T07:36:51.036Z,13.03
2022-12-14T07:39:38.666Z,19.17
2022-12-14T07:42:26.200Z,14.33
2022-12-14T07:45:13.796Z,14.53
2022-12-14T07:48:01.302Z,15.48
2022-12-14T07:50:48.447Z,18.77
2022-12-14T07:53:37.111Z,17.12
2022-12-14T07:56:30.256Z,17.23
2022-12-14T07:59:17.906Z,16.95
2022-12-14T08:02:05.020Z,17.50
2022-12-14T08:04:52.352Z,15.00
2022-12-14T08:07:39.650Z,15.83
2022-12-14T08:10:26.983Z,16.42
2022-12-14T08:13:14.782Z,16.17
2022-12-14T08:16:08.287Z,14.83
2022-12-14T08:18:57.109Z,16.62
2022-12-14T08:21:46.675Z,16.25
2022-12-14T08:24:33.694Z,15.40
2022-12-14T08:27:21.031Z,21.42
2022-12-14T08:30:09.337Z,17.82
2022-12-14T08:32:57.033Z,17.23
2022-12-14T08:35:44.127Z,16.27
2022-12-14T08:38:31.692Z,16.55
2022-12-14T08:41:19.183Z,17.10
2022-12-14T08:44:06.816Z,17.75
2022-12-14T08:46:54.333Z,17.25
2022-12-14T08:49:41.668Z,17.60
2022-12-14T08:52:28.901Z,20.32
2022-12-14T08:55:16.207Z,18.67
2022-12-14T08:58:03.537Z,21.37
2022-12-14T09:00:50.955Z,18.87
2022-12-14T09:03:38.326Z,23.12
2022-12-14T09:06:27.854Z,18.65
2022-12-14T09:09:16.754Z,17.57
2022-12-14T09:12:06.766Z,15.23
2022-12-14T09:14:53.965Z,16.30
2022-12-14T09:17:41.580Z,20.30
2022-12-14T09:20:28.676Z,19.70
2022-12-14T09:23:16.219Z,21.42
2022-12-14T09:26:09.520Z,21.15
2022-12-14T09:28:58.124Z,19.23
2022-12-14T09:31:45.747Z,31.60
2022-12-14T09:34:33.567Z,23.52
2022-12-14T09:37:21.029Z,21.35
2022-12-14T09:40:10.703Z,24.27
2022-12-14T09:43:04.458Z,23.27
2022-12-14T09:45:55.491Z,22.13
2022-12-14T09:48:43.359Z,20.90
2022-12-14T09:51:36.595Z,22.10
2022-12-14T09:54:33.318Z,18.52
2022-12-14T09:57:35.554Z,15.20
2022-12-14T10:00:23.497Z,23.47
2022-12-14T10:03:38.703Z,20.55
2022-12-14T10:06:41.432Z,20.35
2022-12-14T10:09:37.865Z,26.48
2022-12-14T10:12:33.914Z,23.45
2022-12-14T10:15:22.782Z,28.38
2022-12-14T10:18:56.908Z,20.45
2022-12-14T10:21:16.786Z,23.90
2022-12-14T10:24:07.259Z,21.30
2022-12-14T10:26:57.480Z,23.90
2022-12-14T10:30:11.574Z,24.57
2022-12-14T10:33:04.963Z,25.30
2022-12-14T10:35:55.197Z,24.67
2022-12-14T10:39:01.669Z,22.48
2022-12-14T10:41:57.571Z,20.50
2022-12-14T10:45:39.118Z,22.87
2022-12-14T10:47:54.303Z,28.40
2022-12-14T10:50:50.586Z,23.75
2022-12-14T10:54:02.407Z,22.80
2022-12-14T10:56:51.134Z,22.70
2022-12-14T10:59:55.622Z,19.25
2022-12-14T11:02:32.611Z,23.47
2022-12-14T11:05:26.979Z,19.82
2022-12-14T11:08:35.281Z,22.25
2022-12-14T11:11:25.687Z,20.72
2022-12-14T11:14:16.525Z,21.10
2022-12-14T11:17:05.494Z,23.83
2022-12-14T11:20:07.390Z,24.95
2022-12-14T11:22:57.586Z,19.17
2022-12-14T11:25:47.901Z,26.73
2022-12-14T11:28:56.587Z,21.90
2022-12-14T11:31:49.394Z,21.97
2022-12-14T11:34:39.323Z,23.30
2022-12-14T11:37:31.552Z,21.30
2022-12-14T11:40:21.975Z,20.32
2022-12-14T11:43:12.441Z,21.90
2022-12-14T11:46:00.224Z,16.97
2022-12-14T11:48:49.760Z,15.32
2022-12-14T11:51:37.027Z,18.32
2022-12-14T11:54:24.483Z,17.12
2022-12-14T11:57:23.826Z,19.35
2022-12-14T12:00:26.517Z,20.52
2022-12-14T12:03:17.328Z,19.65
2022-12-14T12:06:10.960Z,20.68
2022-12-14T12:09:01.219Z,22.27
2022-12-14T12:11:48.840Z,18.70
2022-12-14T12:14:40.515Z,17.02
2022-12-14T12:17:36.563Z,17.15
2022-12-14T12:20:30.243Z,20.65
2022-12-14T12:23:20.521Z,16.45
2022-12-14T12:26:26.252Z,16.32
2022-12-14T12:29:33.140Z,17.50
2022-12-14T12:32:23.995Z,14.95
2022-12-14T12:35:35.157Z,16.07
2022-12-14T12:38:43.688Z,27.42
2022-12-14T12:41:44.643Z,18.60
2022-12-14T12:45:01.541Z,14.40
2022-12-14T12:47:51.988Z,17.35
2022-12-14T12:50:42.139Z,22.55
2022-12-14T12:53:32.537Z,24.90
2022-12-14T12:56:34.876Z,24.37
2022-12-14T12:59:25.146Z,17.07
2022-12-14T13:02:34.281Z,19.00
2022-12-14T13:08:16.639Z,19.67
2022-12-14T13:11:25.550Z,17.57
2022-12-14T13:14:08.139Z,21.25
2022-12-14T13:17:06.879Z,18.82
2022-12-14T13:19:56.039Z,21.52
2022-12-14T13:22:43.958Z,18.80
2022-12-14T13:26:09.047Z,17.30
2022-12-14T13:29:02.484Z,21.75
2022-12-14T13:32:01.214Z,16.97
2022-12-14T13:35:14.328Z,19.02
2022-12-14T13:38:17.162Z,19.35
2022-12-14T13:41:10.657Z,20.17
2022-12-14T13:44:36.077Z,19.30
2022-12-14T13:47:21.702Z,20.70
2022-12-14T13:50:35.849Z,15.83
2022-12-14T13:53:18.436Z,16.90
2022-12-14T13:56:06.415Z,16.57
2022-12-14T13:58:55.774Z,17.92
2022-12-14T14:01:52.077Z,16.32
2022-12-14T14:04:40.444Z,16.15
2022-12-14T14:07:31.164Z,16.90
2022-12-14T14:10:39.806Z,16.73
2022-12-14T14:13:33.330Z,18.07
2022-12-14T14:16:28.703Z,21.90
2022-12-14T14:19:25.199Z,19.12
2022-12-14T14:22:29.764Z,17.07
2022-12-14T14:25:41.436Z,19.02
2022-12-14T14:28:31.198Z,16.57
2022-12-14T14:31:19.012Z,18.42
2022-12-14T14:34:06.341Z,16.40
2022-12-14T14:36:54.036Z,15.28
2022-12-14T14:40:07.313Z,18.23
2022-12-14T14:42:34.597Z,16.73
2022-12-14T14:45:36.723Z,20.40
2022-12-14T14:48:30.373Z,18.30
2022-12-14T14:51:29.617Z,15.85
2022-12-14T14:55:11.093Z,15.88
2022-12-14T14:57:35.430Z,20.60
2022-12-14T15:00:26.287Z,23.32
2022-12-14T15:03:16.565Z,20.40
2022-12-14T15:06:03.833Z,20.37
2022-12-14T15:09:00.406Z,20.00
2022-12-14T15:11:51.423Z,30.35
2022-12-14T15:14:48.254Z,26.70
2022-12-14T15:17:31.795Z,24.32
2022-12-14T15:20:30.420Z,21.30
2022-12-14T15:23:17.765Z,20.12
2022-12-14T15:26:17.802Z,21.82
2022-12-14T15:29:07.093Z,20.32
2022-12-14T15:32:00.151Z,23.60
2022-12-14T15:34:56.380Z,16.48
2022-12-14T15:37:56.426Z,20.08
2022-12-14T15:40:41.270Z,19.27
2022-12-14T15:43:29.346Z,20.80
2022-12-14T15:46:31.879Z,18.30
2022-12-14T15:49:22.194Z,18.15
2022-12-14T15:52:11.627Z,19.20
2022-12-14T15:55:01.511Z,19.10
2022-12-14T15:57:51.065Z,18.90
2022-12-14T16:00:41.115Z,22.58
2022-12-14T16:03:35.039Z,18.17
2022-12-14T16:06:24.477Z,20.77
2022-12-14T16:09:50.030Z,23.47
2022-12-14T16:12:45.364Z,19.27
2022-12-14T16:15:33.049Z,24.05
2022-12-14T16:18:20.470Z,23.50
2022-12-14T16:21:09.339Z,22.95
2022-12-14T16:23:56.938Z,25.27
2022-12-14T16:26:44.613Z,22.70
2022-12-14T16:29:35.641Z,22.82
2022-12-14T16:32:24.040Z,23.77
2022-12-14T16:35:23.526Z,21.17
2022-12-14T16:38:16.476Z,21.75
2022-12-14T16:41:05.199Z,22.25
2022-12-14T16:43:59.327Z,21.87
2022-12-14T16:47:04.600Z,21.62
2022-12-14T16:50:00.182Z,20.02
2022-12-14T16:52:47.837Z,23.50
2022-12-14T16:55:36.797Z,23.65
2022-12-14T16:58:23.767Z,19.98
2022-12-14T17:01:11.081Z,20.02
2022-12-14T17:04:01.937Z,24.37
2022-12-14T17:06:54.606Z,21.12
2022-12-14T17:09:42.151Z,22.17
2022-12-14T17:12:29.368Z,25.75
2022-12-14T17:15:18.924Z,27.10
2022-12-14T17:18:08.139Z,22.62
2022-12-14T17:20:55.586Z,22.70
2022-12-14T17:23:44.990Z,24.20
2022-12-14T17:26:33.282Z,23.87
2022-12-14T17:29:26.115Z,19.17
2022-12-14T17:32:15.534Z,22.15
2022-12-14T17:35:03.826Z,21.62
2022-12-14T17:37:51.863Z,23.65
2022-12-14T17:40:40.306Z,20.25
2022-12-14T17:43:28.680Z,22.52
2022-12-14T17:46:16.530Z,23.38
2022-12-14T17:49:06.805Z,22.15
2022-12-14T17:51:54.270Z,26.33
2022-12-14T17:54:42.617Z,23.98
2022-12-14T17:57:30.009Z,22.62
2022-12-14T18:00:43.924Z,22.90
2022-12-14T18:03:35.684Z,21.37
2022-12-14T18:06:23.896Z,23.73
2022-12-14T18:09:11.239Z,20.92
2022-12-14T18:12:22.751Z,25.65
2022-12-14T18:14:47.991Z,19.12
2022-12-14T18:17:35.374Z,27.65
2022-12-14T18:20:24.491Z,26.97
2022-12-14T18:23:16.617Z,21.68
2022-12-14T18:26:05.172Z,24.37
2022-12-14T18:28:55.354Z,24.52
2022-12-14T18:31:43.232Z,20.75
2022-12-14T18:34:30.613Z,21.35
2022-12-14T18:37:23.214Z,21.77
2022-12-14T18:40:08.146Z,22.93
2022-12-14T18:42:56.463Z,21.70
2022-12-14T18:45:44.020Z,27.95
2022-12-14T18:48:31.425Z,24.05
2022-12-14T18:51:25.957Z,18.70
2022-12-14T18:54:13.138Z,23.35
2022-12-14T18:57:00.660Z,23.42
2022-12-14T18:59:48.020Z,21.25
2022-12-14T19:02:35.742Z,24.02
2022-12-14T19:05:26.287Z,23.18
2022-12-14T19:08:13.183Z,24.02
2022-12-14T19:11:01.167Z,26.40
2022-12-14T19:13:48.388Z,25.95
2022-12-14T19:16:35.996Z,26.85
2022-12-14T19:19:26.590Z,27.65
2022-12-14T19:22:14.041Z,28.75
2022-12-14T19:25:01.260Z,28.55
2022-12-14T19:30:38.517Z,24.57
2022-12-14T19:33:26.942Z,26.27
2022-12-14T19:36:14.190Z,27.05
2022-12-14T19:39:01.562Z,26.73
2022-12-14T19:41:49.580Z,22.95
2022-12-14T19:44:37.199Z,23.42
2022-12-14T19:47:24.589Z,28.70
2022-12-14T19:50:14.125Z,25.20
2022-12-14T19:53:01.169Z,28.17
2022-12-14T19:55:53.103Z,26.95
2022-12-14T19:58:41.155Z,26.05
2022-12-14T20:01:30.278Z,26.12
2022-12-14T20:04:17.939Z,34.55
2022-12-14T20:07:05.237Z,26.85
2022-12-14T20:09:52.758Z,32.33
2022-12-14T20:12:40.005Z,28.80
2022-12-14T20:15:27.672Z,27.05
2022-12-14T20:18:14.949Z,30.70
2022-12-14T20:21:04.776Z,32.30
2022-12-14T20:23:51.970Z,27.15
2022-12-14T20:26:39.793Z,30.85
2022-12-14T20:29:27.681Z,28.07
2022-12-14T20:32:15.061Z,30.30
2022-12-14T20:35:02.443Z,33.85
2022-12-14T20:37:49.643Z,32.67
2022-12-14T20:40:38.915Z,28.02
2022-12-14T20:43:26.447Z,25.97
2022-12-14T20:46:34.287Z,29.07
2022-12-14T20:49:23.199Z,29.20
2022-12-14T20:52:13.453Z,26.48
2022-12-14T20:55:00.636Z,29.25
2022-12-14T20:57:47.903Z,27.45
2022-12-14T21:00:35.261Z,27.80
2022-12-14T21:03:22.438Z,31.20
2022-12-14T21:06:09.998Z,29.42
2022-12-14T21:09:04.789Z,25.75
2022-12-14T21:12:10.252Z,25.48
2022-12-14T21:14:59.459Z,30.08
2022-12-14T21:17:46.631Z,22.77
2022-12-14T21:20:34.198Z,29.77
2022-12-14T21:23:21.472Z,26.85
2022-12-14T21:26:08.756Z,27.93
2022-12-14T21:28:56.521Z,31.77
2022-12-14T21:31:45.525Z,31.23
2022-12-14T21:34:33.602Z,31.23
2022-12-14T21:37:20.918Z,28.07
2022-12-14T21:40:10.481Z,26.68
2022-12-14T21:42:57.905Z,26.12
2022-12-14T21:45:46.205Z,22.00
2022-12-14T21:48:33.681Z,24.02
2022-12-14T21:51:20.908Z,27.27
2022-12-14T21:54:08.193Z,25.80
2022-12-14T21:57:13.616Z,28.75
2022-12-14T22:00:01.315Z,29.87
2022-12-14T22:02:48.708Z,26.40
2022-12-14T22:05:40.540Z,27.62
2022-12-14T22:08:30.411Z,28.52
2022-12-14T22:11:17.937Z,27.37
2022-12-14T22:14:05.385Z,26.07
2022-12-14T22:16:54.042Z,26.50
2022-12-14T22:19:41.716Z,24.57
2022-12-14T22:22:28.948Z,25.75
2022-12-14T22:25:16.407Z,23.47
2022-12-14T22:28:03.922Z,26.45
2022-12-14T22:30:51.375Z,25.05
2022-12-14T22:33:39.023Z,23.90
2022-12-14T22:36:26.800Z,21.30
2022-12-14T22:39:14.734Z,25.75
2022-12-14T22:42:02.248Z,23.75
2022-12-14T22:44:50.281Z,25.48
2022-12-14T22:47:37.465Z,22.35
2022-12-14T22:50:24.929Z,25.12
2022-12-14T22:53:13.045Z,18.40
2022-12-14T22:56:03.270Z,25.88
2022-12-14T22:58:53.466Z,20.72
2022-12-14T23:01:41.603Z,22.60
2022-12-14T23:04:29.229Z,17.62
2022-12-14T23:07:16.503Z,16.27
2022-12-14T23:10:21.600Z,19.85
2022-12-14T23:13:26.871Z,23.75
2022-12-14T23:16:31.937Z,21.65
2022-12-14T23:19:37.008Z,21.85
2022-12-14T23:22:42.027Z,20.43
2022-12-14T23:25:47.778Z,19.30
2022-12-14T23:28:53.352Z,19.50
2022-12-14T23:31:58.911Z,20.25
2022-12-14T23:35:04.462Z,23.52
2022-12-14T23:38:10.016Z,22.00
2022-12-14T23:41:19.680Z,21.27
2022-12-14T23:44:24.674Z,20.70
2022-12-14T23:47:30.136Z,21.77
2022-12-14T23:50:35.593Z,18.87
2022-12-14T23:53:40.883Z,18.77
2022-12-14T23:56:46.121Z,20.45
2022-12-14T23:59:51.545Z,21.45
